sensor_id;sensor_type;location;lat;lon;timestamp;pressure;altitude;pressure_sealevel;temperature;humidity
42385;BME280;28042;43.986;22.860;2023-04-15T00:00:25;100358.97;;;7.02;100.00
42385;BME280;28042;43.986;22.860;2023-04-15T00:02:51;100333.34;;;6.90;100.00
42385;BME280;28042;43.986;22.860;2023-04-15T00:05:17;100362.94;;;7.15;100.00
42385;BME280;28042;43.986;22.860;2023-04-15T00:07:42;100354.16;;;7.13;100.00
42385;BME280;28042;43.986;22.860;2023-04-15T00:10:09;100299.47;;;6.86;100.00
42385;BME280;28042;43.986;22.860;2023-04-15T00:12:34;100319.13;;;6.88;100.00
42385;BME280;28042;43.986;22.860;2023-04-15T00:15:00;100320.22;;;6.79;100.00
42385;BME280;28042;43.986;22.860;2023-04-15T00:17:26;100369.94;;;7.09;100.00
42385;BME280;28042;43.986;22.860;2023-04-15T00:19:52;100303.97;;;6.79;100.00
42385;BME280;28042;43.986;22.860;2023-04-15T00:22:17;100317.91;;;6.91;100.00
42385;BME280;28042;43.986;22.860;2023-04-15T00:24:43;100352.78;;;7.31;100.00
42385;BME280;28042;43.986;22.860;2023-04-15T00:27:08;100358.97;;;7.40;100.00
42385;BME280;28042;43.986;22.860;2023-04-15T00:29:34;100284.53;;;6.90;100.00
42385;BME280;28042;43.986;22.860;2023-04-15T00:31:59;100311.41;;;7.15;100.00
42385;BME280;28042;43.986;22.860;2023-04-15T00:34:26;100350.75;;;7.48;100.00
42385;BME280;28042;43.986;22.860;2023-04-15T00:36:52;100264.81;;;6.96;100.00
42385;BME280;28042;43.986;22.860;2023-04-15T00:39:17;100295.50;;;7.26;100.00
42385;BME280;28042;43.986;22.860;2023-04-15T00:41:43;100368.59;;;7.87;97.75
42385;BME280;28042;43.986;22.860;2023-04-15T00:44:09;100324.75;;;7.90;93.35
42385;BME280;28042;43.986;22.860;2023-04-15T00:46:36;100369.03;;;8.35;90.30
42385;BME280;28042;43.986;22.860;2023-04-15T00:49:03;100308.78;;;8.16;88.99
42385;BME280;28042;43.986;22.860;2023-04-15T00:51:29;100363.22;;;8.59;86.76
42385;BME280;28042;43.986;22.860;2023-04-15T00:54:01;100305.19;;;8.31;86.26
42385;BME280;28042;43.986;22.860;2023-04-15T00:56:27;100378.00;;;8.71;85.84
42385;BME280;28042;43.986;22.860;2023-04-15T00:58:53;100380.19;;;8.83;84.17
42385;BME280;28042;43.986;22.860;2023-04-15T01:01:23;100371.41;;;8.81;83.37
42385;BME280;28042;43.986;22.860;2023-04-15T01:03:50;100382.66;;;8.77;84.73
42385;BME280;28042;43.986;22.860;2023-04-15T01:06:16;100385.63;;;8.83;83.30
42385;BME280;28042;43.986;22.860;2023-04-15T01:08:42;100369.56;;;8.66;85.97
42385;BME280;28042;43.986;22.860;2023-04-15T01:11:08;100392.13;;;8.60;87.09
42385;BME280;28042;43.986;22.860;2023-04-15T01:13:35;100401.66;;;8.56;88.62
42385;BME280;28042;43.986;22.860;2023-04-15T01:16:01;100344.28;;;8.15;88.86
42385;BME280;28042;43.986;22.860;2023-04-15T01:18:28;100396.63;;;8.53;89.25
42385;BME280;28042;43.986;22.860;2023-04-15T01:20:54;100330.59;;;8.23;88.47
42385;BME280;28042;43.986;22.860;2023-04-15T01:23:20;100345.47;;;8.42;87.84
42385;BME280;28042;43.986;22.860;2023-04-15T01:25:47;100390.56;;;8.72;87.37
42385;BME280;28042;43.986;22.860;2023-04-15T01:28:13;100336.66;;;8.40;86.70
42385;BME280;28042;43.986;22.860;2023-04-15T01:30:39;100340.03;;;8.42;87.08
42385;BME280;28042;43.986;22.860;2023-04-15T01:33:04;100339.19;;;8.41;87.69
42385;BME280;28042;43.986;22.860;2023-04-15T01:35:30;100395.22;;;8.78;87.54
42385;BME280;28042;43.986;22.860;2023-04-15T01:38:05;100397.16;;;8.85;86.49
42385;BME280;28042;43.986;22.860;2023-04-15T01:40:32;100329.31;;;8.55;85.87
42385;BME280;28042;43.986;22.860;2023-04-15T01:42:58;100406.72;;;9.02;85.05
42385;BME280;28042;43.986;22.860;2023-04-15T01:45:24;100410.63;;;9.14;83.89
42385;BME280;28042;43.986;22.860;2023-04-15T01:47:49;100350.91;;;8.85;82.78
42385;BME280;28042;43.986;22.860;2023-04-15T01:50:15;100359.06;;;8.85;82.53
42385;BME280;28042;43.986;22.860;2023-04-15T01:52:40;100416.06;;;9.14;83.51
42385;BME280;28042;43.986;22.860;2023-04-15T01:55:07;100410.38;;;9.09;84.44
42385;BME280;28042;43.986;22.860;2023-04-15T01:57:33;100357.47;;;8.69;84.65
42385;BME280;28042;43.986;22.860;2023-04-15T01:59:58;100351.06;;;8.55;85.81
42385;BME280;28042;43.986;22.860;2023-04-15T02:02:24;100424.09;;;8.80;86.67
42385;BME280;28042;43.986;22.860;2023-04-15T02:04:49;100435.75;;;8.73;87.47
42385;BME280;28042;43.986;22.860;2023-04-15T02:07:15;100413.38;;;8.57;88.48
42385;BME280;28042;43.986;22.860;2023-04-15T02:09:40;100451.13;;;8.66;89.38
42385;BME280;28042;43.986;22.860;2023-04-15T02:12:08;100406.97;;;8.43;90.05
42385;BME280;28042;43.986;22.860;2023-04-15T02:14:33;100446.84;;;8.57;90.14
42385;BME280;28042;43.986;22.860;2023-04-15T02:16:59;100445.56;;;8.53;91.08
42385;BME280;28042;43.986;22.860;2023-04-15T02:19:34;100397.78;;;8.14;91.47
42385;BME280;28042;43.986;22.860;2023-04-15T02:22:00;100448.75;;;8.42;92.56
42385;BME280;28042;43.986;22.860;2023-04-15T02:24:27;100454.25;;;8.34;93.37
42385;BME280;28042;43.986;22.860;2023-04-15T02:26:53;100444.25;;;8.19;93.56
42385;BME280;28042;43.986;22.860;2023-04-15T02:29:18;100436.31;;;8.18;92.17
42385;BME280;28042;43.986;22.860;2023-04-15T02:31:44;100457.75;;;8.28;91.44
42385;BME280;28042;43.986;22.860;2023-04-15T02:34:10;100434.97;;;8.29;90.53
42385;BME280;28042;43.986;22.860;2023-04-15T02:36:35;100456.34;;;8.46;89.40
42385;BME280;28042;43.986;22.860;2023-04-15T02:39:01;100441.72;;;8.47;89.10
42385;BME280;28042;43.986;22.860;2023-04-15T02:41:27;100362.88;;;7.97;88.25
42385;BME280;28042;43.986;22.860;2023-04-15T02:43:54;100392.44;;;8.21;87.78
42385;BME280;28042;43.986;22.860;2023-04-15T02:46:20;100392.00;;;8.17;87.75
42385;BME280;28042;43.986;22.860;2023-04-15T02:48:47;100449.69;;;8.49;87.40
42385;BME280;28042;43.986;22.860;2023-04-15T02:51:20;100447.06;;;8.41;87.75
42385;BME280;28042;43.986;22.860;2023-04-15T02:53:47;100407.91;;;8.20;87.91
42385;BME280;28042;43.986;22.860;2023-04-15T02:56:13;100440.78;;;8.40;87.93
42385;BME280;28042;43.986;22.860;2023-04-15T02:58:44;100438.56;;;8.44;87.46
42385;BME280;28042;43.986;22.860;2023-04-15T03:01:09;100453.19;;;8.43;87.90
42385;BME280;28042;43.986;22.860;2023-04-15T03:03:35;100449.97;;;8.39;87.66
42385;BME280;28042;43.986;22.860;2023-04-15T03:06:01;100452.41;;;8.34;88.14
42385;BME280;28042;43.986;22.860;2023-04-15T03:08:27;100400.69;;;7.98;89.01
42385;BME280;28042;43.986;22.860;2023-04-15T03:10:52;100419.34;;;8.01;89.22
42385;BME280;28042;43.986;22.860;2023-04-15T03:13:19;100460.00;;;8.09;90.56
42385;BME280;28042;43.986;22.860;2023-04-15T03:15:48;100456.25;;;8.10;91.52
42385;BME280;28042;43.986;22.860;2023-04-15T03:18:13;100448.94;;;7.96;92.16
42385;BME280;28042;43.986;22.860;2023-04-15T03:20:39;100456.53;;;7.86;92.65
42385;BME280;28042;43.986;22.860;2023-04-15T03:23:04;100461.19;;;7.77;93.58
42385;BME280;28042;43.986;22.860;2023-04-15T03:25:30;100448.09;;;7.66;94.46
42385;BME280;28042;43.986;22.860;2023-04-15T03:27:55;100453.97;;;7.70;94.07
42385;BME280;28042;43.986;22.860;2023-04-15T03:30:21;100444.81;;;7.71;94.26
42385;BME280;28042;43.986;22.860;2023-04-15T03:32:46;100383.75;;;7.37;93.72
42385;BME280;28042;43.986;22.860;2023-04-15T03:35:12;100390.84;;;7.38;94.94
42385;BME280;28042;43.986;22.860;2023-04-15T03:37:37;100388.91;;;7.32;96.11
42385;BME280;28042;43.986;22.860;2023-04-15T03:40:03;100457.00;;;7.75;95.54
42385;BME280;28042;43.986;22.860;2023-04-15T03:42:28;100450.81;;;7.81;94.77
42385;BME280;28042;43.986;22.860;2023-04-15T03:44:54;100471.06;;;7.93;93.63
42385;BME280;28042;43.986;22.860;2023-04-15T03:47:20;100475.81;;;8.06;92.60
42385;BME280;28042;43.986;22.860;2023-04-15T03:49:45;100462.81;;;8.01;91.96
42385;BME280;28042;43.986;22.860;2023-04-15T03:52:11;100442.22;;;7.92;92.26
42385;BME280;28042;43.986;22.860;2023-04-15T03:54:36;100445.47;;;7.87;91.88
42385;BME280;28042;43.986;22.860;2023-04-15T03:57:02;100481.44;;;8.04;92.51
42385;BME280;28042;43.986;22.860;2023-04-15T03:59:27;100422.81;;;7.65;92.32
42385;BME280;28042;43.986;22.860;2023-04-15T04:01:53;100447.81;;;7.76;93.06
42385;BME280;28042;43.986;22.860;2023-04-15T04:04:18;100439.28;;;7.64;93.55
42385;BME280;28042;43.986;22.860;2023-04-15T04:06:43;100511.72;;;8.01;94.07
42385;BME280;28042;43.986;22.860;2023-04-15T04:09:09;100451.53;;;7.60;94.78
42385;BME280;28042;43.986;22.860;2023-04-15T04:11:35;100437.75;;;7.47;94.58
42385;BME280;28042;43.986;22.860;2023-04-15T04:14:01;100504.53;;;7.71;95.04
42385;BME280;28042;43.986;22.860;2023-04-15T04:16:27;100496.59;;;7.69;95.23
42385;BME280;28042;43.986;22.860;2023-04-15T04:18:52;100493.41;;;7.65;95.44
42385;BME280;28042;43.986;22.860;2023-04-15T04:21:18;100507.91;;;7.73;96.16
42385;BME280;28042;43.986;22.860;2023-04-15T04:23:45;100447.47;;;7.41;96.91
42385;BME280;28042;43.986;22.860;2023-04-15T04:26:10;100516.53;;;7.76;97.56
42385;BME280;28042;43.986;22.860;2023-04-15T04:28:36;100464.84;;;7.70;97.27
42385;BME280;28042;43.986;22.860;2023-04-15T04:31:03;100514.16;;;8.55;96.69
42385;BME280;28042;43.986;22.860;2023-04-15T04:33:29;100505.59;;;9.09;91.17
42385;BME280;28042;43.986;22.860;2023-04-15T04:35:54;100510.00;;;9.74;86.71
42385;BME280;28042;43.986;22.860;2023-04-15T04:38:20;100442.66;;;9.96;82.91
42385;BME280;28042;43.986;22.860;2023-04-15T04:40:45;100515.38;;;11.13;77.53
42385;BME280;28042;43.986;22.860;2023-04-15T04:43:11;100454.50;;;11.52;72.68
42385;BME280;28042;43.986;22.860;2023-04-15T04:45:37;100507.34;;;12.63;68.86
42385;BME280;28042;43.986;22.860;2023-04-15T04:48:02;100503.47;;;12.84;65.98
42385;BME280;28042;43.986;22.860;2023-04-15T04:50:31;100455.63;;;12.42;65.38
42385;BME280;28042;43.986;22.860;2023-04-15T04:52:56;100479.09;;;12.18;66.36
42385;BME280;28042;43.986;22.860;2023-04-15T04:55:22;100454.75;;;12.55;64.50
42385;BME280;28042;43.986;22.860;2023-04-15T04:57:47;100471.84;;;13.58;62.13
42385;BME280;28042;43.986;22.860;2023-04-15T05:00:13;100509.94;;;14.16;58.68
42385;BME280;28042;43.986;22.860;2023-04-15T05:02:39;100508.34;;;15.00;56.62
42385;BME280;28042;43.986;22.860;2023-04-15T05:05:06;100517.25;;;15.86;53.44
42385;BME280;28042;43.986;22.860;2023-04-15T05:07:32;100488.44;;;16.11;49.76
42385;BME280;28042;43.986;22.860;2023-04-15T05:09:57;100531.84;;;16.68;49.30
42385;BME280;28042;43.986;22.860;2023-04-15T05:12:23;100474.50;;;16.77;47.13
42385;BME280;28042;43.986;22.860;2023-04-15T05:14:48;100514.38;;;16.86;46.62
42385;BME280;28042;43.986;22.860;2023-04-15T05:17:14;100520.38;;;16.48;47.53
42385;BME280;28042;43.986;22.860;2023-04-15T05:19:39;100527.31;;;16.15;48.39
42385;BME280;28042;43.986;22.860;2023-04-15T05:22:05;100475.28;;;15.37;49.60
42385;BME280;28042;43.986;22.860;2023-04-15T05:24:30;100473.03;;;14.85;51.82
42385;BME280;28042;43.986;22.860;2023-04-15T05:26:56;100539.59;;;14.69;53.49
42385;BME280;28042;43.986;22.860;2023-04-15T05:29:21;100527.19;;;14.41;54.32
42385;BME280;28042;43.986;22.860;2023-04-15T05:31:47;100542.72;;;14.54;55.09
42385;BME280;28042;43.986;22.860;2023-04-15T05:34:13;100553.22;;;14.57;55.56
42385;BME280;28042;43.986;22.860;2023-04-15T05:36:40;100544.16;;;14.75;56.44
42385;BME280;28042;43.986;22.860;2023-04-15T05:39:05;100495.97;;;14.61;56.11
42385;BME280;28042;43.986;22.860;2023-04-15T05:41:31;100532.75;;;15.08;54.90
42385;BME280;28042;43.986;22.860;2023-04-15T05:43:57;100540.44;;;15.18;54.14
42385;BME280;28042;43.986;22.860;2023-04-15T05:46:22;100545.34;;;15.16;53.85
42385;BME280;28042;43.986;22.860;2023-04-15T05:48:48;100536.28;;;14.97;53.58
42385;BME280;28042;43.986;22.860;2023-04-15T05:51:13;100551.88;;;15.03;53.41
42385;BME280;28042;43.986;22.860;2023-04-15T05:53:39;100501.22;;;15.29;53.40
42385;BME280;28042;43.986;22.860;2023-04-15T05:56:06;100496.34;;;15.96;49.17
42385;BME280;28042;43.986;22.860;2023-04-15T05:58:31;100515.97;;;16.35;50.26
42385;BME280;28042;43.986;22.860;2023-04-15T06:00:57;100547.06;;;16.47;48.27
42385;BME280;28042;43.986;22.860;2023-04-15T06:03:23;100543.00;;;16.61;47.93
42385;BME280;28042;43.986;22.860;2023-04-15T06:05:48;100506.84;;;16.70;47.75
42385;BME280;28042;43.986;22.860;2023-04-15T06:08:14;100560.75;;;17.17;47.08
42385;BME280;28042;43.986;22.860;2023-04-15T06:10:39;100561.72;;;17.11;47.67
42385;BME280;28042;43.986;22.860;2023-04-15T06:13:06;100552.38;;;17.12;47.55
42385;BME280;28042;43.986;22.860;2023-04-15T06:15:32;100517.13;;;17.43;46.08
42385;BME280;28042;43.986;22.860;2023-04-15T06:17:57;100512.50;;;16.51;47.65
42385;BME280;28042;43.986;22.860;2023-04-15T06:20:23;100520.03;;;16.21;49.39
42385;BME280;28042;43.986;22.860;2023-04-15T06:22:48;100510.47;;;16.11;48.83
42385;BME280;28042;43.986;22.860;2023-04-15T06:25:14;100550.59;;;15.66;51.15
42385;BME280;28042;43.986;22.860;2023-04-15T06:27:40;100543.34;;;15.83;50.43
42385;BME280;28042;43.986;22.860;2023-04-15T06:30:06;100515.56;;;15.73;51.09
42385;BME280;28042;43.986;22.860;2023-04-15T06:32:32;100565.47;;;15.58;50.74
42385;BME280;28042;43.986;22.860;2023-04-15T06:34:58;100565.94;;;15.25;50.43
42385;BME280;28042;43.986;22.860;2023-04-15T06:37:23;100557.28;;;14.91;51.90
42385;BME280;28042;43.986;22.860;2023-04-15T06:39:49;100574.53;;;14.98;51.30
42385;BME280;28042;43.986;22.860;2023-04-15T06:42:14;100536.31;;;14.60;51.18
42385;BME280;28042;43.986;22.860;2023-04-15T06:44:41;100545.94;;;14.69;51.15
42385;BME280;28042;43.986;22.860;2023-04-15T06:47:06;100612.38;;;14.96;51.22
42385;BME280;28042;43.986;22.860;2023-04-15T06:49:33;100507.41;;;14.58;51.63
42385;BME280;28042;43.986;22.860;2023-04-15T06:51:59;100549.03;;;14.91;52.01
42385;BME280;28042;43.986;22.860;2023-04-15T06:54:25;100602.72;;;15.24;52.28
42385;BME280;28042;43.986;22.860;2023-04-15T06:56:51;100606.41;;;15.18;50.78
42385;BME280;28042;43.986;22.860;2023-04-15T06:59:16;100610.00;;;14.82;51.83
42385;BME280;28042;43.986;22.860;2023-04-15T07:01:42;100604.88;;;15.22;52.75
42385;BME280;28042;43.986;22.860;2023-04-15T07:04:08;100551.41;;;15.06;52.15
42385;BME280;28042;43.986;22.860;2023-04-15T07:06:33;100558.56;;;15.37;50.73
42385;BME280;28042;43.986;22.860;2023-04-15T07:09:00;100585.56;;;15.59;51.21
42385;BME280;28042;43.986;22.860;2023-04-15T07:11:26;100558.69;;;15.61;50.52
42385;BME280;28042;43.986;22.860;2023-04-15T07:13:51;100600.38;;;15.58;49.99
42385;BME280;28042;43.986;22.860;2023-04-15T07:16:17;100596.16;;;15.73;49.87
42385;BME280;28042;43.986;22.860;2023-04-15T07:18:42;100599.69;;;15.92;49.79
42385;BME280;28042;43.986;22.860;2023-04-15T07:21:08;100539.28;;;15.55;48.14
42385;BME280;28042;43.986;22.860;2023-04-15T07:23:34;100603.50;;;15.91;48.51
42385;BME280;28042;43.986;22.860;2023-04-15T07:25:59;100598.94;;;15.85;48.73
42385;BME280;28042;43.986;22.860;2023-04-15T07:28:25;100554.09;;;15.85;48.38
42385;BME280;28042;43.986;22.860;2023-04-15T07:30:51;100590.66;;;16.27;47.93
42385;BME280;28042;43.986;22.860;2023-04-15T07:33:16;100540.09;;;15.98;47.75
42385;BME280;28042;43.986;22.860;2023-04-15T07:35:42;100556.41;;;16.23;47.11
42385;BME280;28042;43.986;22.860;2023-04-15T07:38:07;100585.00;;;16.22;46.54
42385;BME280;28042;43.986;22.860;2023-04-15T07:40:33;100543.00;;;16.03;47.26
42385;BME280;28042;43.986;22.860;2023-04-15T07:42:58;100533.91;;;15.91;47.42
42385;BME280;28042;43.986;22.860;2023-04-15T07:45:24;100598.81;;;16.33;47.36
42385;BME280;28042;43.986;22.860;2023-04-15T07:47:49;100577.00;;;16.08;47.91
42385;BME280;28042;43.986;22.860;2023-04-15T07:50:15;100576.03;;;16.15;46.54
42385;BME280;28042;43.986;22.860;2023-04-15T07:52:42;100605.25;;;16.39;47.01
42385;BME280;28042;43.986;22.860;2023-04-15T07:55:08;100581.53;;;16.15;46.92
42385;BME280;28042;43.986;22.860;2023-04-15T07:57:34;100554.19;;;15.78;46.09
42385;BME280;28042;43.986;22.860;2023-04-15T08:00:00;100601.78;;;16.32;46.35
42385;BME280;28042;43.986;22.860;2023-04-15T08:02:26;100600.84;;;16.61;46.15
42385;BME280;28042;43.986;22.860;2023-04-15T08:04:52;100611.63;;;16.75;46.21
42385;BME280;28042;43.986;22.860;2023-04-15T08:07:18;100554.00;;;16.15;45.64
42385;BME280;28042;43.986;22.860;2023-04-15T08:09:44;100617.47;;;16.66;45.21
42385;BME280;28042;43.986;22.860;2023-04-15T08:12:10;100550.53;;;16.31;45.52
42385;BME280;28042;43.986;22.860;2023-04-15T08:14:38;100599.28;;;16.89;45.52
42385;BME280;28042;43.986;22.860;2023-04-15T08:17:04;100593.22;;;17.15;44.59
42385;BME280;28042;43.986;22.860;2023-04-15T08:19:30;100555.81;;;17.19;46.01
42385;BME280;28042;43.986;22.860;2023-04-15T08:21:55;100546.50;;;17.37;43.85
42385;BME280;28042;43.986;22.860;2023-04-15T08:24:21;100596.25;;;17.83;44.41
42385;BME280;28042;43.986;22.860;2023-04-15T08:26:46;100535.22;;;17.67;43.53
42385;BME280;28042;43.986;22.860;2023-04-15T08:29:12;100547.00;;;18.25;43.86
42385;BME280;28042;43.986;22.860;2023-04-15T08:31:38;100584.28;;;18.61;42.50
42385;BME280;28042;43.986;22.860;2023-04-15T08:34:03;100528.06;;;18.33;41.39
42385;BME280;28042;43.986;22.860;2023-04-15T08:36:29;100538.47;;;18.10;41.24
42385;BME280;28042;43.986;22.860;2023-04-15T08:38:55;100579.78;;;18.21;41.04
42385;BME280;28042;43.986;22.860;2023-04-15T08:41:22;100574.56;;;17.74;40.79
42385;BME280;28042;43.986;22.860;2023-04-15T08:43:56;100579.31;;;17.79;40.98
42385;BME280;28042;43.986;22.860;2023-04-15T08:46:22;100576.59;;;17.96;39.93
42385;BME280;28042;43.986;22.860;2023-04-15T08:48:48;100559.03;;;18.02;39.31
42385;BME280;28042;43.986;22.860;2023-04-15T08:51:15;100530.50;;;17.79;40.08
42385;BME280;28042;43.986;22.860;2023-04-15T08:53:45;100532.88;;;17.59;39.71
42385;BME280;28042;43.986;22.860;2023-04-15T08:56:13;100575.84;;;17.84;39.76
42385;BME280;28042;43.986;22.860;2023-04-15T08:58:40;100576.28;;;17.64;39.56
42385;BME280;28042;43.986;22.860;2023-04-15T09:01:05;100511.03;;;17.41;39.61
42385;BME280;28042;43.986;22.860;2023-04-15T09:03:32;100578.59;;;17.84;39.68
42385;BME280;28042;43.986;22.860;2023-04-15T09:05:59;100556.28;;;18.02;39.22
42385;BME280;28042;43.986;22.860;2023-04-15T09:08:25;100566.81;;;18.05;38.96
42385;BME280;28042;43.986;22.860;2023-04-15T09:10:50;100580.78;;;18.32;39.81
42385;BME280;28042;43.986;22.860;2023-04-15T09:13:17;100576.41;;;18.70;38.49
42385;BME280;28042;43.986;22.860;2023-04-15T09:15:42;100560.59;;;18.65;37.89
42385;BME280;28042;43.986;22.860;2023-04-15T09:18:11;100575.91;;;18.39;37.66
42385;BME280;28042;43.986;22.860;2023-04-15T09:20:40;100566.72;;;18.00;39.08
42385;BME280;28042;43.986;22.860;2023-04-15T09:23:14;100529.63;;;17.34;39.08
42385;BME280;28042;43.986;22.860;2023-04-15T09:25:40;100592.06;;;17.68;39.28
42385;BME280;28042;43.986;22.860;2023-04-15T09:28:09;100581.09;;;17.85;39.45
42385;BME280;28042;43.986;22.860;2023-04-15T09:30:35;100581.13;;;18.19;38.33
42385;BME280;28042;43.986;22.860;2023-04-15T09:33:03;100580.09;;;18.42;37.45
42385;BME280;28042;43.986;22.860;2023-04-15T09:35:38;100576.31;;;18.48;36.74
42385;BME280;28042;43.986;22.860;2023-04-15T09:38:07;100586.78;;;18.46;36.80
42385;BME280;28042;43.986;22.860;2023-04-15T09:40:40;100580.41;;;18.79;36.74
42385;BME280;28042;43.986;22.860;2023-04-15T09:43:08;100525.44;;;18.82;36.87
42385;BME280;28042;43.986;22.860;2023-04-15T09:45:35;100521.59;;;18.83;36.51
42385;BME280;28042;43.986;22.860;2023-04-15T09:50:43;100555.72;;;19.16;36.11
42385;BME280;28042;43.986;22.860;2023-04-15T09:53:09;100501.25;;;19.43;34.78
42385;BME280;28042;43.986;22.860;2023-04-15T09:55:38;100552.16;;;19.96;34.92
42385;BME280;28042;43.986;22.860;2023-04-15T09:58:19;100529.38;;;19.89;34.54
42385;BME280;28042;43.986;22.860;2023-04-15T10:00:49;100536.38;;;19.97;34.15
42385;BME280;28042;43.986;22.860;2023-04-15T10:03:21;100547.28;;;20.09;34.41
42385;BME280;28042;43.986;22.860;2023-04-15T10:05:49;100526.34;;;20.23;34.80
42385;BME280;28042;43.986;22.860;2023-04-15T10:08:20;100526.00;;;20.14;34.95
42385;BME280;28042;43.986;22.860;2023-04-15T10:10:47;100524.38;;;19.81;33.56
42385;BME280;28042;43.986;22.860;2023-04-15T10:13:21;100479.78;;;19.02;34.05
42385;BME280;28042;43.986;22.860;2023-04-15T10:16:10;100530.97;;;19.53;34.24
42385;BME280;28042;43.986;22.860;2023-04-15T10:18:40;100468.34;;;19.15;34.14
42385;BME280;28042;43.986;22.860;2023-04-15T10:21:07;100474.75;;;19.47;34.45
42385;BME280;28042;43.986;22.860;2023-04-15T10:23:33;100527.44;;;20.22;33.73
42385;BME280;28042;43.986;22.860;2023-04-15T10:25:59;100494.25;;;20.32;32.61
42385;BME280;28042;43.986;22.860;2023-04-15T10:28:26;100526.59;;;20.58;32.88
42385;BME280;28042;43.986;22.860;2023-04-15T10:30:52;100476.88;;;20.42;32.14
42385;BME280;28042;43.986;22.860;2023-04-15T10:33:20;100474.88;;;20.79;32.22
42385;BME280;28042;43.986;22.860;2023-04-15T10:35:47;100478.03;;;21.03;31.92
42385;BME280;28042;43.986;22.860;2023-04-15T10:38:42;100517.53;;;21.31;30.80
42385;BME280;28042;43.986;22.860;2023-04-15T10:43:36;100482.00;;;21.33;31.43
42385;BME280;28042;43.986;22.860;2023-04-15T10:46:04;100514.59;;;21.00;32.10
42385;BME280;28042;43.986;22.860;2023-04-15T10:48:30;100492.91;;;20.82;31.14
42385;BME280;28042;43.986;22.860;2023-04-15T10:50:56;100522.91;;;20.95;30.71
42385;BME280;28042;43.986;22.860;2023-04-15T10:53:28;100485.66;;;20.71;30.87
42385;BME280;28042;43.986;22.860;2023-04-15T10:55:56;100521.97;;;20.69;31.79
42385;BME280;28042;43.986;22.860;2023-04-15T10:58:23;100469.63;;;19.93;32.41
42385;BME280;28042;43.986;22.860;2023-04-15T11:00:51;100530.25;;;20.27;32.71
42385;BME280;28042;43.986;22.860;2023-04-15T11:03:20;100545.72;;;20.18;32.68
42385;BME280;28042;43.986;22.860;2023-04-15T11:05:58;100503.97;;;19.97;33.28
42385;BME280;28042;43.986;22.860;2023-04-15T11:08:56;100552.25;;;20.07;33.31
42385;BME280;28042;43.986;22.860;2023-04-15T11:11:37;100515.59;;;19.94;33.68
42385;BME280;28042;43.986;22.860;2023-04-15T11:14:14;100544.94;;;19.90;34.74
42385;BME280;28042;43.986;22.860;2023-04-15T11:16:43;100547.81;;;19.73;34.98
42385;BME280;28042;43.986;22.860;2023-04-15T11:19:09;100538.69;;;19.73;34.47
42385;BME280;28042;43.986;22.860;2023-04-15T11:21:35;100542.38;;;19.57;35.00
42385;BME280;28042;43.986;22.860;2023-04-15T11:24:00;100554.75;;;19.54;35.11
42385;BME280;28042;43.986;22.860;2023-04-15T11:26:26;100541.50;;;19.29;35.28
42385;BME280;28042;43.986;22.860;2023-04-15T11:28:52;100540.50;;;19.13;36.75
42385;BME280;28042;43.986;22.860;2023-04-15T11:31:18;100539.06;;;19.11;36.23
42385;BME280;28042;43.986;22.860;2023-04-15T11:33:58;100551.59;;;19.18;36.37
42385;BME280;28042;43.986;22.860;2023-04-15T11:36:28;100544.59;;;19.11;35.76
42385;BME280;28042;43.986;22.860;2023-04-15T11:38:57;100499.28;;;18.90;36.13
42385;BME280;28042;43.986;22.860;2023-04-15T11:41:23;100532.63;;;19.27;35.55
42385;BME280;28042;43.986;22.860;2023-04-15T11:43:49;100504.47;;;19.30;35.96
42385;BME280;28042;43.986;22.860;2023-04-15T11:46:15;100486.31;;;19.17;35.55
42385;BME280;28042;43.986;22.860;2023-04-15T11:48:44;100526.78;;;19.51;35.65
42385;BME280;28042;43.986;22.860;2023-04-15T11:51:11;100526.97;;;19.98;35.84
42385;BME280;28042;43.986;22.860;2023-04-15T11:56:09;100512.22;;;20.67;33.57
42385;BME280;28042;43.986;22.860;2023-04-15T11:58:37;100527.25;;;20.76;33.74
42385;BME280;28042;43.986;22.860;2023-04-15T12:01:03;100531.28;;;21.05;33.50
42385;BME280;28042;43.986;22.860;2023-04-15T12:03:40;100525.50;;;21.22;33.46
42385;BME280;28042;43.986;22.860;2023-04-15T12:06:11;100480.25;;;21.11;32.91
42385;BME280;28042;43.986;22.860;2023-04-15T12:08:56;100515.34;;;21.58;33.39
42385;BME280;28042;43.986;22.860;2023-04-15T12:13:53;100504.81;;;22.01;32.34
42385;BME280;28042;43.986;22.860;2023-04-15T12:16:19;100514.53;;;22.24;32.89
42385;BME280;28042;43.986;22.860;2023-04-15T12:18:46;100512.63;;;22.09;32.03
42385;BME280;28042;43.986;22.860;2023-04-15T12:21:12;100492.31;;;21.93;31.68
42385;BME280;28042;43.986;22.860;2023-04-15T12:23:47;100512.03;;;22.22;32.26
42385;BME280;28042;43.986;22.860;2023-04-15T12:26:14;100483.72;;;21.85;32.88
42385;BME280;28042;43.986;22.860;2023-04-15T12:28:40;100516.38;;;21.27;33.21
42385;BME280;28042;43.986;22.860;2023-04-15T12:31:10;100502.94;;;20.98;33.94
42385;BME280;28042;43.986;22.860;2023-04-15T12:33:36;100461.72;;;20.54;34.25
42385;BME280;28042;43.986;22.860;2023-04-15T12:36:03;100495.56;;;20.56;34.42
42385;BME280;28042;43.986;22.860;2023-04-15T12:38:29;100523.31;;;20.67;34.81
42385;BME280;28042;43.986;22.860;2023-04-15T12:40:56;100515.81;;;20.20;35.11
42385;BME280;28042;43.986;22.860;2023-04-15T12:43:22;100512.13;;;20.09;36.03
42385;BME280;28042;43.986;22.860;2023-04-15T12:45:47;100507.75;;;19.81;35.88
42385;BME280;28042;43.986;22.860;2023-04-15T12:48:13;100513.63;;;19.58;36.21
42385;BME280;28042;43.986;22.860;2023-04-15T12:50:38;100465.84;;;19.45;35.82